Main page
METAR-TAF:

METAR-TAF

Airports :

São Gabriel da Cachoeira Airport

São Gabriel da Cachoeira, Amazonas, Brazil

latitude: 00-08S, longitude: 067-05W, elevation: 90 m

Current weather observation

The report was made 15 hours and 15 minutes ago, at 19:00 UTC
Wind 5 kt from the South/Southwest
Temperature 29°C
Humidity 84%
Pressure 1007 hPa
Visibility 10 km or more
Few clouds at a height of 1200 ft

METAR: SBUA 131900Z 20005KT 9999 FEW012 29/26 Q1007

Time: 06:15 (10:15 UTC)


TAF: missing

Weather observations and forecasts of more than 4000 airports (METAR and TAF reports).

The available stations are represented by yellow and red dots on the map.

Hover mouse over dot to see the name of the station.

Then click to see weather observations and forecasts.

To change the map : click on the green buttons with a black cross to zoom in, on the green button with a dash to zoom out, or on the green arrows for adjacent maps.


METAR-TAF: